sensor_id;sensor_type;location;lat;lon;timestamp;temperature;humidity
429;DHT22;201;48.758;9.290;2022-08-21T00:01:19;16.20;10.60
429;DHT22;201;48.758;9.290;2022-08-21T00:03:46;16.20;11.00
429;DHT22;201;48.758;9.290;2022-08-21T00:06:11;16.30;10.90
429;DHT22;201;48.758;9.290;2022-08-21T00:08:37;16.30;10.80
429;DHT22;201;48.758;9.290;2022-08-21T00:11:03;16.20;10.70
429;DHT22;201;48.758;9.290;2022-08-21T00:13:29;16.20;10.90
429;DHT22;201;48.758;9.290;2022-08-21T00:15:54;16.20;10.70
429;DHT22;201;48.758;9.290;2022-08-21T00:18:20;16.10;10.40
429;DHT22;201;48.758;9.290;2022-08-21T00:20:47;16.00;10.00
429;DHT22;201;48.758;9.290;2022-08-21T00:23:13;16.00;10.30
429;DHT22;201;48.758;9.290;2022-08-21T00:25:41;16.10;10.30
429;DHT22;201;48.758;9.290;2022-08-21T00:28:07;16.00;9.70
429;DHT22;201;48.758;9.290;2022-08-21T00:30:33;15.80;9.20
429;DHT22;201;48.758;9.290;2022-08-21T00:33:00;15.80;9.60
429;DHT22;201;48.758;9.290;2022-08-21T00:35:30;15.80;9.40
429;DHT22;201;48.758;9.290;2022-08-21T00:37:56;15.80;9.40
429;DHT22;201;48.758;9.290;2022-08-21T00:40:30;15.90;9.80
429;DHT22;201;48.758;9.290;2022-08-21T00:42:56;16.00;9.70
429;DHT22;201;48.758;9.290;2022-08-21T00:45:23;15.80;9.10
429;DHT22;201;48.758;9.290;2022-08-21T00:47:51;15.60;9.10
429;DHT22;201;48.758;9.290;2022-08-21T00:50:17;15.60;9.10
429;DHT22;201;48.758;9.290;2022-08-21T00:52:43;15.50;9.10
429;DHT22;201;48.758;9.290;2022-08-21T00:55:11;15.60;9.30
429;DHT22;201;48.758;9.290;2022-08-21T00:57:42;15.80;9.70
429;DHT22;201;48.758;9.290;2022-08-21T01:00:12;15.90;9.40
429;DHT22;201;48.758;9.290;2022-08-21T01:02:39;15.80;8.90
429;DHT22;201;48.758;9.290;2022-08-21T01:05:06;15.70;8.60
429;DHT22;201;48.758;9.290;2022-08-21T01:07:31;15.80;8.90
429;DHT22;201;48.758;9.290;2022-08-21T01:09:57;15.90;9.00
429;DHT22;201;48.758;9.290;2022-08-21T01:12:23;15.70;8.60
429;DHT22;201;48.758;9.290;2022-08-21T01:14:49;15.70;8.90
429;DHT22;201;48.758;9.290;2022-08-21T01:17:15;15.60;8.60
429;DHT22;201;48.758;9.290;2022-08-21T01:19:42;15.60;8.80
429;DHT22;201;48.758;9.290;2022-08-21T01:22:08;15.60;8.90
429;DHT22;201;48.758;9.290;2022-08-21T01:24:34;15.50;8.60
429;DHT22;201;48.758;9.290;2022-08-21T01:27:00;15.60;8.50
429;DHT22;201;48.758;9.290;2022-08-21T01:29:46;15.60;8.40
429;DHT22;201;48.758;9.290;2022-08-21T01:32:15;15.60;8.10
429;DHT22;201;48.758;9.290;2022-08-21T01:34:44;15.50;8.10
429;DHT22;201;48.758;9.290;2022-08-21T01:37:11;15.50;8.10
429;DHT22;201;48.758;9.290;2022-08-21T01:39:38;15.50;8.10
429;DHT22;201;48.758;9.290;2022-08-21T01:42:04;15.50;8.30
429;DHT22;201;48.758;9.290;2022-08-21T01:44:30;15.60;8.40
429;DHT22;201;48.758;9.290;2022-08-21T01:47:00;15.70;8.10
429;DHT22;201;48.758;9.290;2022-08-21T01:49:26;15.50;8.00
429;DHT22;201;48.758;9.290;2022-08-21T01:51:51;15.50;7.80
429;DHT22;201;48.758;9.290;2022-08-21T01:54:17;15.40;7.90
429;DHT22;201;48.758;9.290;2022-08-21T01:56:46;15.40;8.10
429;DHT22;201;48.758;9.290;2022-08-21T01:59:13;15.50;8.40
429;DHT22;201;48.758;9.290;2022-08-21T02:01:39;15.40;8.00
429;DHT22;201;48.758;9.290;2022-08-21T02:04:06;15.60;8.40
429;DHT22;201;48.758;9.290;2022-08-21T02:06:32;15.50;8.10
429;DHT22;201;48.758;9.290;2022-08-21T02:08:57;15.30;8.00
429;DHT22;201;48.758;9.290;2022-08-21T02:11:23;15.20;8.40
429;DHT22;201;48.758;9.290;2022-08-21T02:13:49;15.20;8.50
429;DHT22;201;48.758;9.290;2022-08-21T02:16:14;15.20;9.00
429;DHT22;201;48.758;9.290;2022-08-21T02:18:40;15.10;9.40
429;DHT22;201;48.758;9.290;2022-08-21T02:21:06;15.10;9.50
429;DHT22;201;48.758;9.290;2022-08-21T02:23:32;15.00;9.40
429;DHT22;201;48.758;9.290;2022-08-21T02:26:02;15.00;9.70
429;DHT22;201;48.758;9.290;2022-08-21T02:28:29;14.90;9.90
429;DHT22;201;48.758;9.290;2022-08-21T02:30:55;14.90;10.20
429;DHT22;201;48.758;9.290;2022-08-21T02:33:21;15.00;10.20
429;DHT22;201;48.758;9.290;2022-08-21T02:35:48;15.00;10.10
429;DHT22;201;48.758;9.290;2022-08-21T02:38:17;14.90;10.00
429;DHT22;201;48.758;9.290;2022-08-21T02:40:44;14.90;10.30
429;DHT22;201;48.758;9.290;2022-08-21T02:43:11;14.80;10.20
429;DHT22;201;48.758;9.290;2022-08-21T02:45:37;14.80;10.50
429;DHT22;201;48.758;9.290;2022-08-21T02:48:07;14.80;10.60
429;DHT22;201;48.758;9.290;2022-08-21T02:50:39;14.70;10.60
429;DHT22;201;48.758;9.290;2022-08-21T02:53:06;14.70;10.90
429;DHT22;201;48.758;9.290;2022-08-21T02:55:34;14.60;11.20
429;DHT22;201;48.758;9.290;2022-08-21T02:58:01;14.60;11.70
429;DHT22;201;48.758;9.290;2022-08-21T03:00:29;14.60;12.10
429;DHT22;201;48.758;9.290;2022-08-21T03:02:55;14.60;12.90
429;DHT22;201;48.758;9.290;2022-08-21T03:05:22;14.50;12.80
429;DHT22;201;48.758;9.290;2022-08-21T03:07:47;14.60;12.90
429;DHT22;201;48.758;9.290;2022-08-21T03:10:14;14.50;12.90
429;DHT22;201;48.758;9.290;2022-08-21T03:12:40;14.40;12.80
429;DHT22;201;48.758;9.290;2022-08-21T03:15:09;14.30;13.30
429;DHT22;201;48.758;9.290;2022-08-21T03:17:35;14.30;13.40
429;DHT22;201;48.758;9.290;2022-08-21T03:20:02;14.30;13.80
429;DHT22;201;48.758;9.290;2022-08-21T03:22:28;14.30;13.60
429;DHT22;201;48.758;9.290;2022-08-21T03:24:53;14.30;13.80
429;DHT22;201;48.758;9.290;2022-08-21T03:27:19;14.30;14.00
429;DHT22;201;48.758;9.290;2022-08-21T03:29:45;14.40;13.80
429;DHT22;201;48.758;9.290;2022-08-21T03:32:11;14.30;13.50
429;DHT22;201;48.758;9.290;2022-08-21T03:34:38;14.30;13.80
429;DHT22;201;48.758;9.290;2022-08-21T03:37:05;14.30;14.10
429;DHT22;201;48.758;9.290;2022-08-21T03:39:31;14.30;13.60
429;DHT22;201;48.758;9.290;2022-08-21T03:41:56;14.30;13.80
429;DHT22;201;48.758;9.290;2022-08-21T03:44:23;14.20;14.10
429;DHT22;201;48.758;9.290;2022-08-21T03:46:48;14.20;14.50
429;DHT22;201;48.758;9.290;2022-08-21T03:49:14;14.20;14.80
429;DHT22;201;48.758;9.290;2022-08-21T03:51:40;14.20;14.80
429;DHT22;201;48.758;9.290;2022-08-21T03:54:05;14.20;15.10
429;DHT22;201;48.758;9.290;2022-08-21T03:56:31;14.20;15.20
429;DHT22;201;48.758;9.290;2022-08-21T03:58:57;14.20;15.30
429;DHT22;201;48.758;9.290;2022-08-21T04:01:22;14.10;15.40
429;DHT22;201;48.758;9.290;2022-08-21T04:03:48;14.20;15.60
429;DHT22;201;48.758;9.290;2022-08-21T04:06:13;14.20;15.40
429;DHT22;201;48.758;9.290;2022-08-21T04:08:39;14.10;15.60
429;DHT22;201;48.758;9.290;2022-08-21T04:11:08;14.10;15.80
429;DHT22;201;48.758;9.290;2022-08-21T04:13:35;14.10;15.90
429;DHT22;201;48.758;9.290;2022-08-21T04:16:01;14.10;16.00
429;DHT22;201;48.758;9.290;2022-08-21T04:18:27;14.00;16.10
429;DHT22;201;48.758;9.290;2022-08-21T04:20:53;14.00;16.20
429;DHT22;201;48.758;9.290;2022-08-21T04:23:21;14.00;16.30
429;DHT22;201;48.758;9.290;2022-08-21T04:25:47;14.00;16.40
429;DHT22;201;48.758;9.290;2022-08-21T04:28:12;14.00;16.40
429;DHT22;201;48.758;9.290;2022-08-21T04:30:37;14.00;16.70
429;DHT22;201;48.758;9.290;2022-08-21T04:33:03;14.00;17.10
429;DHT22;201;48.758;9.290;2022-08-21T04:35:29;14.00;16.60
429;DHT22;201;48.758;9.290;2022-08-21T04:37:55;14.00;16.80
429;DHT22;201;48.758;9.290;2022-08-21T04:40:22;14.10;16.80
429;DHT22;201;48.758;9.290;2022-08-21T04:42:54;14.00;16.50
429;DHT22;201;48.758;9.290;2022-08-21T04:45:26;14.10;16.60
429;DHT22;201;48.758;9.290;2022-08-21T04:47:53;14.00;16.40
429;DHT22;201;48.758;9.290;2022-08-21T04:50:22;14.00;16.50
429;DHT22;201;48.758;9.290;2022-08-21T04:52:50;14.00;16.40
429;DHT22;201;48.758;9.290;2022-08-21T04:55:16;14.10;16.40
429;DHT22;201;48.758;9.290;2022-08-21T04:57:43;14.10;16.20
429;DHT22;201;48.758;9.290;2022-08-21T05:00:09;14.10;16.10
429;DHT22;201;48.758;9.290;2022-08-21T05:02:36;14.20;16.10
429;DHT22;201;48.758;9.290;2022-08-21T05:05:03;14.20;15.80
429;DHT22;201;48.758;9.290;2022-08-21T05:07:30;14.40;15.90
429;DHT22;201;48.758;9.290;2022-08-21T05:09:56;14.40;15.40
429;DHT22;201;48.758;9.290;2022-08-21T05:12:22;14.40;15.10
429;DHT22;201;48.758;9.290;2022-08-21T05:14:48;14.50;15.00
429;DHT22;201;48.758;9.290;2022-08-21T05:17:14;14.60;14.80
429;DHT22;201;48.758;9.290;2022-08-21T05:19:40;14.60;14.60
429;DHT22;201;48.758;9.290;2022-08-21T05:22:05;14.70;14.20
429;DHT22;201;48.758;9.290;2022-08-21T05:24:31;14.80;14.00
429;DHT22;201;48.758;9.290;2022-08-21T05:26:57;14.90;13.30
429;DHT22;201;48.758;9.290;2022-08-21T05:29:23;15.00;13.20
429;DHT22;201;48.758;9.290;2022-08-21T05:31:49;15.10;13.30
429;DHT22;201;48.758;9.290;2022-08-21T05:34:18;15.40;14.10
429;DHT22;201;48.758;9.290;2022-08-21T05:36:44;15.60;13.00
429;DHT22;201;48.758;9.290;2022-08-21T05:39:10;15.70;12.20
429;DHT22;201;48.758;9.290;2022-08-21T05:41:35;16.00;11.40
429;DHT22;201;48.758;9.290;2022-08-21T05:44:01;16.10;10.30
429;DHT22;201;48.758;9.290;2022-08-21T05:46:26;16.20;10.30
429;DHT22;201;48.758;9.290;2022-08-21T05:48:52;16.60;8.60
429;DHT22;201;48.758;9.290;2022-08-21T05:51:17;17.30;6.10
429;DHT22;201;48.758;9.290;2022-08-21T05:53:43;18.20;4.20
429;DHT22;201;48.758;9.290;2022-08-21T05:56:10;19.80;1.00
429;DHT22;201;48.758;9.290;2022-08-21T05:58:36;20.90;1.00
429;DHT22;201;48.758;9.290;2022-08-21T06:01:03;21.80;1.00
429;DHT22;201;48.758;9.290;2022-08-21T06:03:33;22.40;1.00
429;DHT22;201;48.758;9.290;2022-08-21T06:05:59;23.30;1.00
429;DHT22;201;48.758;9.290;2022-08-21T06:08:25;24.20;1.00
429;DHT22;201;48.758;9.290;2022-08-21T06:10:52;24.30;1.00
429;DHT22;201;48.758;9.290;2022-08-21T06:13:19;25.30;1.00
429;DHT22;201;48.758;9.290;2022-08-21T06:15:45;25.10;1.00
429;DHT22;201;48.758;9.290;2022-08-21T06:18:11;24.90;1.00
429;DHT22;201;48.758;9.290;2022-08-21T06:20:37;25.80;1.00
429;DHT22;201;48.758;9.290;2022-08-21T06:23:03;26.90;1.00
429;DHT22;201;48.758;9.290;2022-08-21T06:25:30;27.90;1.00
429;DHT22;201;48.758;9.290;2022-08-21T06:28:07;28.50;1.00
429;DHT22;201;48.758;9.290;2022-08-21T06:30:34;28.90;1.00
429;DHT22;201;48.758;9.290;2022-08-21T06:33:00;29.80;1.00
429;DHT22;201;48.758;9.290;2022-08-21T06:35:26;30.50;1.00
429;DHT22;201;48.758;9.290;2022-08-21T06:37:54;30.80;1.00
429;DHT22;201;48.758;9.290;2022-08-21T06:40:20;31.40;1.00
429;DHT22;201;48.758;9.290;2022-08-21T06:42:45;31.90;1.00
429;DHT22;201;48.758;9.290;2022-08-21T06:45:11;32.70;1.00
429;DHT22;201;48.758;9.290;2022-08-21T06:47:37;33.60;1.00
429;DHT22;201;48.758;9.290;2022-08-21T06:50:02;33.90;1.00
429;DHT22;201;48.758;9.290;2022-08-21T06:52:29;34.40;1.00
429;DHT22;201;48.758;9.290;2022-08-21T06:54:55;34.90;1.00
429;DHT22;201;48.758;9.290;2022-08-21T06:57:21;35.20;1.00
429;DHT22;201;48.758;9.290;2022-08-21T06:59:47;35.30;1.00
429;DHT22;201;48.758;9.290;2022-08-21T07:02:12;35.70;1.00
429;DHT22;201;48.758;9.290;2022-08-21T07:04:38;35.50;1.00
429;DHT22;201;48.758;9.290;2022-08-21T07:07:03;35.80;1.00
429;DHT22;201;48.758;9.290;2022-08-21T07:09:29;36.40;1.00
429;DHT22;201;48.758;9.290;2022-08-21T07:11:55;37.30;1.00
429;DHT22;201;48.758;9.290;2022-08-21T07:14:22;37.40;1.00
429;DHT22;201;48.758;9.290;2022-08-21T07:16:48;37.60;1.00
429;DHT22;201;48.758;9.290;2022-08-21T07:19:14;37.90;1.00
429;DHT22;201;48.758;9.290;2022-08-21T07:21:40;37.60;1.00
429;DHT22;201;48.758;9.290;2022-08-21T07:24:05;37.90;1.00
429;DHT22;201;48.758;9.290;2022-08-21T07:26:31;38.50;1.00
429;DHT22;201;48.758;9.290;2022-08-21T07:28:56;39.30;1.00
429;DHT22;201;48.758;9.290;2022-08-21T07:31:23;39.50;1.00
429;DHT22;201;48.758;9.290;2022-08-21T07:33:49;40.10;1.00
429;DHT22;201;48.758;9.290;2022-08-21T07:36:15;40.70;1.00
429;DHT22;201;48.758;9.290;2022-08-21T07:38:41;41.60;1.00
429;DHT22;201;48.758;9.290;2022-08-21T07:41:13;42.10;1.00
429;DHT22;201;48.758;9.290;2022-08-21T07:43:39;41.80;1.00
429;DHT22;201;48.758;9.290;2022-08-21T07:46:05;41.60;1.00
429;DHT22;201;48.758;9.290;2022-08-21T07:48:30;42.00;1.00
429;DHT22;201;48.758;9.290;2022-08-21T07:50:55;41.70;1.00
429;DHT22;201;48.758;9.290;2022-08-21T07:53:21;41.50;1.00
429;DHT22;201;48.758;9.290;2022-08-21T07:55:47;41.80;1.00
429;DHT22;201;48.758;9.290;2022-08-21T07:58:13;42.20;1.00
429;DHT22;201;48.758;9.290;2022-08-21T08:00:39;42.50;1.00
429;DHT22;201;48.758;9.290;2022-08-21T08:03:05;42.90;1.00
429;DHT22;201;48.758;9.290;2022-08-21T08:05:31;43.30;1.00
429;DHT22;201;48.758;9.290;2022-08-21T08:07:57;43.00;1.00
429;DHT22;201;48.758;9.290;2022-08-21T08:10:24;43.50;1.00
429;DHT22;201;48.758;9.290;2022-08-21T08:12:50;44.20;1.00
429;DHT22;201;48.758;9.290;2022-08-21T08:15:19;44.10;1.00
429;DHT22;201;48.758;9.290;2022-08-21T08:17:45;44.30;1.00
429;DHT22;201;48.758;9.290;2022-08-21T08:20:12;44.60;1.00
429;DHT22;201;48.758;9.290;2022-08-21T08:22:38;44.30;1.00
429;DHT22;201;48.758;9.290;2022-08-21T08:25:05;44.90;1.00
429;DHT22;201;48.758;9.290;2022-08-21T08:27:31;45.80;1.00
429;DHT22;201;48.758;9.290;2022-08-21T08:29:57;46.10;1.00
429;DHT22;201;48.758;9.290;2022-08-21T08:32:23;46.50;1.00
429;DHT22;201;48.758;9.290;2022-08-21T08:34:49;45.60;1.00
429;DHT22;201;48.758;9.290;2022-08-21T08:37:20;46.40;1.00
429;DHT22;201;48.758;9.290;2022-08-21T08:39:46;46.90;1.00
429;DHT22;201;48.758;9.290;2022-08-21T08:42:20;46.90;1.00
429;DHT22;201;48.758;9.290;2022-08-21T08:44:46;46.50;1.00
429;DHT22;201;48.758;9.290;2022-08-21T08:47:14;47.10;1.00
429;DHT22;201;48.758;9.290;2022-08-21T08:49:55;47.40;1.00
429;DHT22;201;48.758;9.290;2022-08-21T08:52:32;47.70;1.00
429;DHT22;201;48.758;9.290;2022-08-21T08:55:04;47.80;1.00
429;DHT22;201;48.758;9.290;2022-08-21T08:57:30;47.80;1.00
429;DHT22;201;48.758;9.290;2022-08-21T08:59:59;48.30;1.00
429;DHT22;201;48.758;9.290;2022-08-21T09:02:25;48.70;1.00
429;DHT22;201;48.758;9.290;2022-08-21T09:04:53;49.40;1.00
429;DHT22;201;48.758;9.290;2022-08-21T09:15:36;50.90;1.00
429;DHT22;201;48.758;9.290;2022-08-21T09:23:49;50.70;1.00
429;DHT22;201;48.758;9.290;2022-08-21T09:26:20;50.60;1.00
429;DHT22;201;48.758;9.290;2022-08-21T09:28:51;50.00;1.00
429;DHT22;201;48.758;9.290;2022-08-21T09:31:26;49.10;1.00
429;DHT22;201;48.758;9.290;2022-08-21T09:34:03;49.60;1.00
429;DHT22;201;48.758;9.290;2022-08-21T09:39:04;50.30;1.00
429;DHT22;201;48.758;9.290;2022-08-21T09:41:33;49.90;1.00
429;DHT22;201;48.758;9.290;2022-08-21T09:44:00;49.70;1.00
429;DHT22;201;48.758;9.290;2022-08-21T09:46:27;49.80;1.00
429;DHT22;201;48.758;9.290;2022-08-21T09:48:56;49.80;1.00
429;DHT22;201;48.758;9.290;2022-08-21T09:54:07;51.10;1.00
429;DHT22;201;48.758;9.290;2022-08-21T09:56:57;50.70;1.00
429;DHT22;201;48.758;9.290;2022-08-21T09:59:44;51.80;1.00
429;DHT22;201;48.758;9.290;2022-08-21T10:02:29;52.10;1.00
429;DHT22;201;48.758;9.290;2022-08-21T10:04:57;52.60;1.00
429;DHT22;201;48.758;9.290;2022-08-21T10:07:26;53.10;1.00
429;DHT22;201;48.758;9.290;2022-08-21T10:10:08;52.50;1.00
429;DHT22;201;48.758;9.290;2022-08-21T10:20:50;51.70;1.00
429;DHT22;201;48.758;9.290;2022-08-21T10:23:42;50.30;1.00
429;DHT22;201;48.758;9.290;2022-08-21T10:26:24;47.50;1.00
429;DHT22;201;48.758;9.290;2022-08-21T10:29:26;43.90;1.00
429;DHT22;201;48.758;9.290;2022-08-21T10:32:34;41.30;1.00
429;DHT22;201;48.758;9.290;2022-08-21T10:48:58;33.90;1.00
429;DHT22;201;48.758;9.290;2022-08-21T10:52:02;35.20;1.00
429;DHT22;201;48.758;9.290;2022-08-21T10:54:47;35.70;1.00
429;DHT22;201;48.758;9.290;2022-08-21T10:57:34;36.00;1.00
429;DHT22;201;48.758;9.290;2022-08-21T11:00:19;37.80;1.00
429;DHT22;201;48.758;9.290;2022-08-21T11:05:24;39.20;1.00
429;DHT22;201;48.758;9.290;2022-08-21T11:07:57;38.20;1.00
429;DHT22;201;48.758;9.290;2022-08-21T11:16:25;37.40;1.00
429;DHT22;201;48.758;9.290;2022-08-21T11:22:04;37.50;1.00
429;DHT22;201;48.758;9.290;2022-08-21T11:29:58;34.80;1.00
429;DHT22;201;48.758;9.290;2022-08-21T11:32:43;34.00;1.00
429;DHT22;201;48.758;9.290;2022-08-21T11:45:59;32.00;1.00
429;DHT22;201;48.758;9.290;2022-08-21T11:51:47;31.80;1.00
429;DHT22;201;48.758;9.290;2022-08-21T11:57:08;31.30;1.00
429;DHT22;201;48.758;9.290;2022-08-21T12:02:31;31.00;1.00
429;DHT22;201;48.758;9.290;2022-08-21T12:05:02;30.70;1.00
429;DHT22;201;48.758;9.290;2022-08-21T12:07:40;29.90;1.00
429;DHT22;201;48.758;9.290;2022-08-21T12:10:14;30.00;1.00
429;DHT22;201;48.758;9.290;2022-08-21T12:12:41;29.90;1.00
429;DHT22;201;48.758;9.290;2022-08-21T12:17:50;30.00;1.00
429;DHT22;201;48.758;9.290;2022-08-21T12:25:42;30.00;1.00
429;DHT22;201;48.758;9.290;2022-08-21T12:28:11;30.10;1.00
429;DHT22;201;48.758;9.290;2022-08-21T12:30:48;30.30;1.00
429;DHT22;201;48.758;9.290;2022-08-21T12:35:50;30.60;1.00
429;DHT22;201;48.758;9.290;2022-08-21T12:38:39;30.60;1.00
429;DHT22;201;48.758;9.290;2022-08-21T12:41:17;30.70;1.00
429;DHT22;201;48.758;9.290;2022-08-21T12:43:51;30.60;1.00
429;DHT22;201;48.758;9.290;2022-08-21T12:46:22;30.60;1.00
429;DHT22;201;48.758;9.290;2022-08-21T12:48:52;30.50;1.00
429;DHT22;201;48.758;9.290;2022-08-21T12:51:26;30.60;1.00
429;DHT22;201;48.758;9.290;2022-08-21T12:53:56;30.60;1.00
429;DHT22;201;48.758;9.290;2022-08-21T12:56:26;30.40;1.00
429;DHT22;201;48.758;9.290;2022-08-21T12:58:55;30.40;1.00
429;DHT22;201;48.758;9.290;2022-08-21T13:01:30;30.40;1.00
429;DHT22;201;48.758;9.290;2022-08-21T13:03:59;30.50;1.00
429;DHT22;201;48.758;9.290;2022-08-21T13:06:29;30.40;1.00
429;DHT22;201;48.758;9.290;2022-08-21T13:09:03;30.20;1.00
429;DHT22;201;48.758;9.290;2022-08-21T13:11:31;29.60;1.00
429;DHT22;201;48.758;9.290;2022-08-21T13:13:57;29.20;1.00
429;DHT22;201;48.758;9.290;2022-08-21T13:16:28;29.20;1.00
429;DHT22;201;48.758;9.290;2022-08-21T13:21:21;29.50;1.00
429;DHT22;201;48.758;9.290;2022-08-21T13:23:52;29.20;1.00
429;DHT22;201;48.758;9.290;2022-08-21T13:26:20;28.90;1.00
429;DHT22;201;48.758;9.290;2022-08-21T13:28:47;28.70;1.00
429;DHT22;201;48.758;9.290;2022-08-21T13:31:25;28.70;1.00
429;DHT22;201;48.758;9.290;2022-08-21T13:33:53;28.50;1.00
429;DHT22;201;48.758;9.290;2022-08-21T13:36:26;28.90;1.00
429;DHT22;201;48.758;9.290;2022-08-21T13:38:54;29.40;1.00
429;DHT22;201;48.758;9.290;2022-08-21T13:41:23;29.60;1.00
429;DHT22;201;48.758;9.290;2022-08-21T13:43:56;29.70;1.00
429;DHT22;201;48.758;9.290;2022-08-21T13:46:24;29.70;1.00
429;DHT22;201;48.758;9.290;2022-08-21T13:48:53;29.90;1.00
429;DHT22;201;48.758;9.290;2022-08-21T13:51:19;30.00;1.00
429;DHT22;201;48.758;9.290;2022-08-21T13:53:50;29.70;1.00
429;DHT22;201;48.758;9.290;2022-08-21T13:56:43;29.60;1.00
429;DHT22;201;48.758;9.290;2022-08-21T13:59:09;29.50;1.00
429;DHT22;201;48.758;9.290;2022-08-21T14:02:16;29.40;1.00
429;DHT22;201;48.758;9.290;2022-08-21T14:04:57;29.20;1.00
429;DHT22;201;48.758;9.290;2022-08-21T14:07:36;28.90;1.00
429;DHT22;201;48.758;9.290;2022-08-21T14:10:07;28.80;1.00
429;DHT22;201;48.758;9.290;2022-08-21T14:12:47;28.90;1.00
429;DHT22;201;48.758;9.290;2022-08-21T14:15:16;28.90;1.00
429;DHT22;201;48.758;9.290;2022-08-21T14:17:42;28.70;1.00
429;DHT22;201;48.758;9.290;2022-08-21T14:20:33;28.80;1.00
429;DHT22;201;48.758;9.290;2022-08-21T14:22:59;28.70;1.00
429;DHT22;201;48.758;9.290;2022-08-21T14:27:53;28.70;1.00
429;DHT22;201;48.758;9.290;2022-08-21T14:30:25;28.70;1.00
429;DHT22;201;48.758;9.290;2022-08-21T14:32:52;28.60;1.00
429;DHT22;201;48.758;9.290;2022-08-21T14:35:18;28.30;1.00
429;DHT22;201;48.758;9.290;2022-08-21T14:37:46;28.20;1.00
429;DHT22;201;48.758;9.290;2022-08-21T14:40:12;28.20;1.00
429;DHT22;201;48.758;9.290;2022-08-21T14:42:45;28.00;1.00
429;DHT22;201;48.758;9.290;2022-08-21T14:47:47;28.00;1.00
429;DHT22;201;48.758;9.290;2022-08-21T14:50:13;28.20;1.00
429;DHT22;201;48.758;9.290;2022-08-21T14:52:39;28.20;1.00
429;DHT22;201;48.758;9.290;2022-08-21T14:55:07;28.30;1.00
429;DHT22;201;48.758;9.290;2022-08-21T14:57:33;28.30;1.00
429;DHT22;201;48.758;9.290;2022-08-21T14:59:59;28.20;1.00
429;DHT22;201;48.758;9.290;2022-08-21T15:02:25;28.20;1.00
429;DHT22;201;48.758;9.290;2022-08-21T15:04:51;28.10;1.00
429;DHT22;201;48.758;9.290;2022-08-21T15:07:17;28.10;1.00
429;DHT22;201;48.758;9.290;2022-08-21T15:09:42;28.10;1.00
429;DHT22;201;48.758;9.290;2022-08-21T15:12:08;28.00;1.00
429;DHT22;201;48.758;9.290;2022-08-21T15:14:38;27.90;1.00
429;DHT22;201;48.758;9.290;2022-08-21T15:17:06;27.90;1.00
429;DHT22;201;48.758;9.290;2022-08-21T15:19:32;27.80;1.00
429;DHT22;201;48.758;9.290;2022-08-21T15:21:58;27.70;1.00
429;DHT22;201;48.758;9.290;2022-08-21T15:24:24;27.70;1.00
429;DHT22;201;48.758;9.290;2022-08-21T15:26:50;27.70;1.00
429;DHT22;201;48.758;9.290;2022-08-21T15:29:16;27.80;1.00
429;DHT22;201;48.758;9.290;2022-08-21T15:31:55;27.70;1.00
429;DHT22;201;48.758;9.290;2022-08-21T15:34:22;27.60;1.00
429;DHT22;201;48.758;9.290;2022-08-21T15:36:48;27.40;1.00
429;DHT22;201;48.758;9.290;2022-08-21T15:39:14;27.40;1.00
429;DHT22;201;48.758;9.290;2022-08-21T15:41:40;27.50;1.00
429;DHT22;201;48.758;9.290;2022-08-21T15:44:06;27.40;1.00
429;DHT22;201;48.758;9.290;2022-08-21T15:46:31;27.40;1.00
429;DHT22;201;48.758;9.290;2022-08-21T15:48:57;27.40;1.00
429;DHT22;201;48.758;9.290;2022-08-21T15:51:22;27.50;1.00
429;DHT22;201;48.758;9.290;2022-08-21T15:53:48;27.60;1.00
429;DHT22;201;48.758;9.290;2022-08-21T15:56:24;27.70;1.00
429;DHT22;201;48.758;9.290;2022-08-21T15:58:53;27.60;1.00
429;DHT22;201;48.758;9.290;2022-08-21T16:01:22;27.60;1.00
429;DHT22;201;48.758;9.290;2022-08-21T16:03:50;27.70;1.00
429;DHT22;201;48.758;9.290;2022-08-21T16:06:17;27.70;1.00
429;DHT22;201;48.758;9.290;2022-08-21T16:08:42;27.60;1.00
429;DHT22;201;48.758;9.290;2022-08-21T16:11:08;27.50;1.00
429;DHT22;201;48.758;9.290;2022-08-21T16:13:39;27.30;1.00
429;DHT22;201;48.758;9.290;2022-08-21T16:16:08;27.20;1.00
429;DHT22;201;48.758;9.290;2022-08-21T16:18:34;27.10;1.00
429;DHT22;201;48.758;9.290;2022-08-21T16:21:00;27.00;1.00
429;DHT22;201;48.758;9.290;2022-08-21T16:23:25;27.20;1.00
429;DHT22;201;48.758;9.290;2022-08-21T16:25:51;27.20;1.00
429;DHT22;201;48.758;9.290;2022-08-21T16:28:18;27.10;1.00
429;DHT22;201;48.758;9.290;2022-08-21T16:30:47;27.20;1.00
429;DHT22;201;48.758;9.290;2022-08-21T16:33:36;27.10;1.00
429;DHT22;201;48.758;9.290;2022-08-21T16:36:04;26.90;1.00
429;DHT22;201;48.758;9.290;2022-08-21T16:38:30;27.00;1.00
429;DHT22;201;48.758;9.290;2022-08-21T16:40:57;26.90;1.00
429;DHT22;201;48.758;9.290;2022-08-21T16:43:25;26.80;1.00
429;DHT22;201;48.758;9.290;2022-08-21T16:45:53;26.70;1.00
429;DHT22;201;48.758;9.290;2022-08-21T16:48:19;26.60;1.00
429;DHT22;201;48.758;9.290;2022-08-21T16:50:45;26.60;1.00
429;DHT22;201;48.758;9.290;2022-08-21T16:53:10;26.60;1.00
429;DHT22;201;48.758;9.290;2022-08-21T16:55:36;26.60;1.00
429;DHT22;201;48.758;9.290;2022-08-21T16:58:12;26.70;1.00
429;DHT22;201;48.758;9.290;2022-08-21T17:00:39;26.70;1.00
429;DHT22;201;48.758;9.290;2022-08-21T17:03:04;26.60;1.00
429;DHT22;201;48.758;9.290;2022-08-21T17:05:30;26.50;1.00
429;DHT22;201;48.758;9.290;2022-08-21T17:07:56;26.50;1.00
429;DHT22;201;48.758;9.290;2022-08-21T17:10:21;26.30;1.00
429;DHT22;201;48.758;9.290;2022-08-21T17:12:52;26.10;1.00
429;DHT22;201;48.758;9.290;2022-08-21T17:15:24;26.10;1.00
429;DHT22;201;48.758;9.290;2022-08-21T17:17:51;26.10;1.00
429;DHT22;201;48.758;9.290;2022-08-21T17:20:17;26.00;1.00
429;DHT22;201;48.758;9.290;2022-08-21T17:22:43;26.00;1.00
429;DHT22;201;48.758;9.290;2022-08-21T17:25:08;25.90;1.00
429;DHT22;201;48.758;9.290;2022-08-21T17:27:34;25.90;1.00
429;DHT22;201;48.758;9.290;2022-08-21T17:30:00;25.80;1.00
429;DHT22;201;48.758;9.290;2022-08-21T17:32:26;25.70;1.00
429;DHT22;201;48.758;9.290;2022-08-21T17:34:52;25.70;1.00
429;DHT22;201;48.758;9.290;2022-08-21T17:37:17;25.60;1.00
429;DHT22;201;48.758;9.290;2022-08-21T17:39:43;25.60;1.00
429;DHT22;201;48.758;9.290;2022-08-21T17:42:10;25.60;1.00
429;DHT22;201;48.758;9.290;2022-08-21T17:44:39;25.60;1.00
429;DHT22;201;48.758;9.290;2022-08-21T17:47:06;25.40;1.00
429;DHT22;201;48.758;9.290;2022-08-21T17:49:32;25.30;1.00
429;DHT22;201;48.758;9.290;2022-08-21T17:51:57;25.20;1.00
429;DHT22;201;48.758;9.290;2022-08-21T17:54:25;25.10;1.00
429;DHT22;201;48.758;9.290;2022-08-21T17:56:51;25.00;1.00
429;DHT22;201;48.758;9.290;2022-08-21T17:59:17;24.90;1.00
429;DHT22;201;48.758;9.290;2022-08-21T18:01:44;24.80;1.00
429;DHT22;201;48.758;9.290;2022-08-21T18:04:11;24.70;1.00
429;DHT22;201;48.758;9.290;2022-08-21T18:06:36;24.50;1.00
429;DHT22;201;48.758;9.290;2022-08-21T18:09:03;24.30;1.00
429;DHT22;201;48.758;9.290;2022-08-21T18:11:30;24.20;1.00
429;DHT22;201;48.758;9.290;2022-08-21T18:13:58;24.10;1.00
429;DHT22;201;48.758;9.290;2022-08-21T18:16:26;23.90;1.00
429;DHT22;201;48.758;9.290;2022-08-21T18:18:52;23.80;1.00
429;DHT22;201;48.758;9.290;2022-08-21T18:21:19;23.60;1.00
429;DHT22;201;48.758;9.290;2022-08-21T18:23:45;23.50;1.00
429;DHT22;201;48.758;9.290;2022-08-21T18:26:17;23.30;1.00
429;DHT22;201;48.758;9.290;2022-08-21T18:28:45;23.20;1.00
429;DHT22;201;48.758;9.290;2022-08-21T18:31:11;23.00;1.00
429;DHT22;201;48.758;9.290;2022-08-21T18:33:38;22.90;1.00